Time;durP1;ratioP1;P1;durP2;ratioP2;P2;SDS_P1;SDS_P2;PMS_P1;PMS_P2;Temp;Humidity;BMP_temperature;BMP_pressure;BME280_temperature;BME280_humidity;BME280_pressure;Samples;Min_cycle;Max_cycle;Signal;HPM_P1;HPM_P2
2021/12/25 00:00:20;;;;;;;;;;;9.30;99.90;;;;;;4987636;28;19930;-80
2021/12/25 00:02:48;;;;;;;;;;;9.30;99.90;;;;;;4987184;28;19933;-79
2021/12/25 00:05:17;;;;;;;;;;;9.30;99.90;;;;;;5003954;28;19942;-79
2021/12/25 00:07:45;;;;;;;;;;;9.20;99.90;;;;;;4988789;28;19926;-83
2021/12/25 00:10:14;;;;;;;;;;;9.30;99.90;;;;;;4988865;28;19926;-80
2021/12/25 00:12:52;;;;;;;;;;;9.30;99.90;;;;;;4988095;28;19930;-81
2021/12/25 00:15:21;;;;;;;;;;;9.00;99.90;;;;;;4985762;28;19926;-79
2021/12/25 00:17:49;;;;;;;;;;;9.20;99.90;;;;;;4986782;28;19930;-81
2021/12/25 00:20:21;;;;;;;;;;;9.30;99.90;;;;;;4984933;28;19930;-80
2021/12/25 00:22:52;;;;;;;;;;;8.80;99.90;;;;;;4984787;28;19937;-81
2021/12/25 00:25:21;;;;;;;;;;;9.30;99.90;;;;;;4986887;28;19926;-79
2021/12/25 00:28:15;;;;;;;;;;;9.70;99.90;;;;;;4985525;28;19926;-79
2021/12/25 00:30:58;;;;;;;;;;;9.30;99.90;;;;;;4987560;28;19940;-79
2021/12/25 00:33:48;;;;;;;;;;;9.30;99.90;;;;;;4968095;28;19929;-80
2021/12/25 00:36:17;;;;;;;;;;;9.40;99.90;;;;;;4987550;28;19926;-81
2021/12/25 00:38:46;;;;;;;;;;;9.30;99.90;;;;;;5003347;28;19929;-80
2021/12/25 00:41:16;;;;;;;;;;;9.30;99.90;;;;;;4988781;28;20135;-80
2021/12/25 00:43:44;;;;;;;;;;;9.30;99.90;;;;;;5006688;28;19936;-79
2021/12/25 00:46:13;;;;;;;;;;;9.30;99.90;;;;;;4987781;28;19913;-82
2021/12/25 00:48:41;;;;;;;;;;;9.30;99.90;;;;;;4988009;28;19926;-80
2021/12/25 00:51:12;;;;;;;;;;;9.20;99.90;;;;;;4995529;28;19930;-79
2021/12/25 00:53:40;;;;;;;;;;;9.20;99.90;;;;;;5004884;28;19941;-78
2021/12/25 00:56:08;;;;;;;;;;;9.20;99.90;;;;;;5005730;28;19926;-79
2021/12/25 00:58:38;;;;;;;;;;;9.30;99.90;;;;;;4988987;28;20277;-79
2021/12/25 01:01:06;;;;;;;;;;;9.20;99.90;;;;;;5005227;28;19936;-79
2021/12/25 01:03:34;;;;;;;;;;;9.20;99.90;;;;;;4988660;28;19940;-80
2021/12/25 01:06:06;;;;;;;;;;;10.70;99.90;;;;;;4987439;28;19930;-80
2021/12/25 01:08:36;;;;;;;;;;;9.20;99.90;;;;;;4988063;28;19936;-79
2021/12/25 01:11:10;;;;;;;;;;;9.20;99.90;;;;;;5005415;28;19929;-81
2021/12/25 01:13:45;;;;;;;;;;;9.20;99.90;;;;;;5004918;28;19925;-78
2021/12/25 01:16:52;;;;;;;;;;;9.20;99.90;;;;;;4986029;28;19927;-80
2021/12/25 01:19:42;;;;;;;;;;;9.10;99.90;;;;;;4969116;28;19936;-80
2021/12/25 01:36:59;;;;;;;;;;;9.20;99.90;;;;;;4941137;29;19931;-79
2021/12/25 01:39:56;;;;;;;;;;;9.10;99.90;;;;;;5002352;28;19934;-80
2021/12/25 01:48:42;;;;;;;;;;;9.10;99.90;;;;;;5001306;28;19926;-81
2021/12/25 01:51:11;;;;;;;;;;;9.10;99.90;;;;;;4984850;28;20417;-79
2021/12/25 01:53:38;;;;;;;;;;;9.20;99.90;;;;;;4987468;28;20093;-80
2021/12/25 01:56:06;;;;;;;;;;;9.10;99.90;;;;;;4992042;28;19948;-81
2021/12/25 01:58:34;;;;;;;;;;;9.10;99.90;;;;;;5020918;28;20188;-81
2021/12/25 02:01:04;;;;;;;;;;;9.10;99.90;;;;;;5003931;28;19937;-81
2021/12/25 02:07:14;;;;;;;;;;;9.10;99.90;;;;;;4986432;28;19922;-79
2021/12/25 02:09:42;;;;;;;;;;;9.00;99.90;;;;;;4986487;28;19926;-79
2021/12/25 02:12:11;;;;;;;;;;;9.00;99.90;;;;;;5004240;28;20383;-81
2021/12/25 02:14:42;;;;;;;;;;;9.00;99.90;;;;;;5003630;28;19936;-79
2021/12/25 02:17:21;;;;;;;;;;;9.00;99.90;;;;;;4983140;28;19926;-79
2021/12/25 02:20:06;;;;;;;;;;;9.00;99.90;;;;;;4985045;28;19926;-80
2021/12/25 02:22:34;;;;;;;;;;;9.00;99.90;;;;;;4984576;28;19926;-80
2021/12/25 02:28:20;;;;;;;;;;;9.00;99.90;;;;;;4983326;28;19926;-79
2021/12/25 02:30:48;;;;;;;;;;;9.00;99.90;;;;;;4983494;28;19937;-81
2021/12/25 02:33:17;;;;;;;;;;;9.00;99.90;;;;;;5011161;28;20318;-80
2021/12/25 02:35:45;;;;;;;;;;;9.00;99.90;;;;;;5006813;28;19929;-80
2021/12/25 02:38:13;;;;;;;;;;;9.40;99.90;;;;;;4990001;28;20469;-79
2021/12/25 02:40:46;;;;;;;;;;;9.00;99.90;;;;;;5023103;28;20025;-81
2021/12/25 02:43:27;;;;;;;;;;;9.00;99.90;;;;;;4982549;28;19930;-80
2021/12/25 02:46:05;;;;;;;;;;;9.00;99.90;;;;;;4961815;29;19946;-79
2021/12/25 02:48:36;;;;;;;;;;;9.10;99.90;;;;;;4964357;29;19942;-79
2021/12/25 02:51:08;;;;;;;;;;;9.00;99.90;;;;;;4965848;29;19930;-80
2021/12/25 02:53:36;;;;;;;;;;;9.00;99.90;;;;;;4964910;29;19926;-81
2021/12/25 02:56:05;;;;;;;;;;;9.00;99.90;;;;;;4948628;29;19948;-81
2021/12/25 02:58:35;;;;;;;;;;;9.00;99.90;;;;;;4948119;29;19930;-80
2021/12/25 03:01:07;;;;;;;;;;;9.10;99.90;;;;;;4949676;28;19935;-79
2021/12/25 03:03:35;;;;;;;;;;;9.00;99.90;;;;;;4982277;28;19930;-80
2021/12/25 03:06:04;;;;;;;;;;;9.00;99.90;;;;;;4984497;28;19930;-79
2021/12/25 03:08:32;;;;;;;;;;;9.00;99.90;;;;;;4947457;29;19926;-78
2021/12/25 03:11:05;;;;;;;;;;;9.00;99.90;;;;;;4961595;29;19927;-81
2021/12/25 03:13:44;;;;;;;;;;;9.00;99.90;;;;;;4951808;28;19934;-80
2021/12/25 03:16:14;;;;;;;;;;;9.00;99.90;;;;;;4972229;28;19925;-79
2021/12/25 03:18:48;;;;;;;;;;;8.90;99.90;;;;;;5004990;28;19932;-80
2021/12/25 03:21:17;;;;;;;;;;;8.30;99.90;;;;;;5002082;28;19926;-80
2021/12/25 03:23:47;;;;;;;;;;;9.00;99.90;;;;;;4987221;28;19926;-80
2021/12/25 03:26:15;;;;;;;;;;;9.00;99.90;;;;;;4979764;28;19932;-80
2021/12/25 03:28:44;;;;;;;;;;;9.00;99.90;;;;;;5005446;28;19936;-79
2021/12/25 03:31:17;;;;;;;;;;;8.90;99.90;;;;;;5005126;28;19918;-79
2021/12/25 03:33:46;;;;;;;;;;;8.90;99.90;;;;;;4988297;28;19933;-81
2021/12/25 03:36:14;;;;;;;;;;;9.00;99.90;;;;;;4988887;28;19929;-79
2021/12/25 03:39:08;;;;;;;;;;;8.90;99.90;;;;;;4989144;28;19926;-80
2021/12/25 03:41:36;;;;;;;;;;;8.90;99.90;;;;;;4989785;28;20269;-81
2021/12/25 03:44:03;;;;;;;;;;;8.90;99.90;;;;;;4989595;28;19933;-80
2021/12/25 03:46:31;;;;;;;;;;;8.90;99.90;;;;;;4978419;28;19933;-82
2021/12/25 03:49:07;;;;;;;;;;;8.90;99.90;;;;;;4985938;28;19934;-80
2021/12/25 03:58:26;;;;;;;;;;;8.80;99.90;;;;;;4986606;28;19937;-80
2021/12/25 04:04:42;;;;;;;;;;;8.80;99.90;;;;;;4971802;28;19914;-80
2021/12/25 04:10:01;;;;;;;;;;;8.80;99.90;;;;;;5003315;28;19925;-81
2021/12/25 04:12:29;;;;;;;;;;;8.80;99.90;;;;;;5003844;28;19929;-80
2021/12/25 04:14:57;;;;;;;;;;;8.80;99.90;;;;;;5004026;28;19940;-80
2021/12/25 04:17:26;;;;;;;;;;;9.00;99.90;;;;;;4987468;28;19949;-81
2021/12/25 04:19:54;;;;;;;;;;;8.80;99.90;;;;;;4987904;28;19929;-78
2021/12/25 04:22:29;;;;;;;;;;;8.80;99.90;;;;;;4986990;28;19942;-79
2021/12/25 04:24:57;;;;;;;;;;;8.80;99.90;;;;;;4974814;28;19956;-80
2021/12/25 04:27:25;;;;;;;;;;;8.70;99.90;;;;;;4991645;28;19945;-79
2021/12/25 04:30:03;;;;;;;;;;;8.70;99.90;;;;;;4983208;28;19934;-80
2021/12/25 04:33:28;;;;;;;;;;;8.80;99.90;;;;;;5012740;28;19926;-80
2021/12/25 05:03:53;;;;;;;;;;;8.80;99.90;;;;;;4990459;28;19930;-81
2021/12/25 05:06:27;;;;;;;;;;;8.80;99.90;;;;;;4976388;28;19932;-79
2021/12/25 05:08:55;;;;;;;;;;;8.80;99.90;;;;;;4992936;28;19949;-80
2021/12/25 05:11:22;;;;;;;;;;;8.80;99.90;;;;;;4981598;28;19926;-79
2021/12/25 05:13:53;;;;;;;;;;;8.80;99.90;;;;;;4994698;28;19929;-81
2021/12/25 05:16:30;;;;;;;;;;;8.80;99.90;;;;;;4983913;28;19930;-82
2021/12/25 05:18:59;;;;;;;;;;;8.80;99.90;;;;;;4980299;28;19926;-80
2021/12/25 05:21:27;;;;;;;;;;;8.60;99.90;;;;;;4974018;28;19932;-82
2021/12/25 05:23:57;;;;;;;;;;;8.80;99.90;;;;;;4994540;28;19929;-80
2021/12/25 05:26:29;;;;;;;;;;;8.80;99.90;;;;;;4965132;28;19932;-79
2021/12/25 05:28:59;;;;;;;;;;;8.80;99.90;;;;;;5006037;28;19926;-80
2021/12/25 05:31:31;;;;;;;;;;;8.80;99.90;;;;;;5003371;28;19925;-82
2021/12/25 05:34:08;;;;;;;;;;;8.80;99.90;;;;;;4995593;28;19972;-83
2021/12/25 05:37:03;;;;;;;;;;;8.80;99.90;;;;;;4971471;28;19926;-82
2021/12/25 05:39:34;;;;;;;;;;;8.80;99.90;;;;;;4995155;28;19930;-81
2021/12/25 05:42:02;;;;;;;;;;;8.80;99.90;;;;;;4990217;28;19933;-82
2021/12/25 05:44:30;;;;;;;;;;;8.50;99.90;;;;;;4972813;28;19933;-81
2021/12/25 05:47:01;;;;;;;;;;;8.80;99.90;;;;;;5006218;28;19925;-79
2021/12/25 05:49:29;;;;;;;;;;;8.80;99.90;;;;;;4987718;28;19930;-80
2021/12/25 05:52:08;;;;;;;;;;;8.80;99.90;;;;;;5005488;28;19930;-80
2021/12/25 05:54:56;;;;;;;;;;;8.80;99.90;;;;;;4985955;28;19941;-79
2021/12/25 05:58:04;;;;;;;;;;;8.80;99.90;;;;;;4977242;28;20353;-80
2021/12/25 06:00:41;;;;;;;;;;;8.80;99.90;;;;;;5002947;28;19934;-79
2021/12/25 06:03:09;;;;;;;;;;;8.80;99.90;;;;;;4987709;28;20465;-82
2021/12/25 06:05:39;;;;;;;;;;;8.80;99.90;;;;;;4970729;28;19933;-80
2021/12/25 06:08:07;;;;;;;;;;;8.80;99.90;;;;;;4985073;28;19925;-82
2021/12/25 06:10:35;;;;;;;;;;;8.80;99.90;;;;;;4973268;28;19926;-78
2021/12/25 06:13:03;;;;;;;;;;;8.80;99.90;;;;;;4987476;28;19929;-78
2021/12/25 06:15:36;;;;;;;;;;;8.80;99.90;;;;;;4990561;28;19944;-83
2021/12/25 06:18:15;;;;;;;;;;;8.80;99.90;;;;;;4987188;28;19930;-78
2021/12/25 06:20:56;;;;;;;;;;;8.80;99.90;;;;;;4972884;28;19933;-81
2021/12/25 06:23:47;;;;;;;;;;;8.80;99.90;;;;;;4998728;28;20104;-78
2021/12/25 06:26:54;;;;;;;;;;;8.80;99.90;;;;;;5003767;28;19926;-83
2021/12/25 06:30:00;;;;;;;;;;;8.20;99.90;;;;;;5004535;28;20419;-80
2021/12/25 06:32:41;;;;;;;;;;;8.80;99.90;;;;;;4969854;28;19925;-79
2021/12/25 06:35:28;;;;;;;;;;;8.80;99.90;;;;;;4990323;28;19926;-82
2021/12/25 06:38:11;;;;;;;;;;;8.90;99.90;;;;;;4988947;28;19933;-78
2021/12/25 06:40:48;;;;;;;;;;;8.90;99.90;;;;;;4984714;28;20435;-82
2021/12/25 06:43:15;;;;;;;;;;;8.90;99.90;;;;;;5004194;28;19929;-83
2021/12/25 06:45:43;;;;;;;;;;;9.10;99.90;;;;;;4981197;28;19930;-81
2021/12/25 06:48:13;;;;;;;;;;;9.20;99.90;;;;;;4998812;28;19925;-79
2021/12/25 06:51:09;;;;;;;;;;;8.90;99.90;;;;;;4992791;28;19930;-80
2021/12/25 06:53:57;;;;;;;;;;;8.80;99.90;;;;;;5003882;28;19940;-82
2021/12/25 06:56:38;;;;;;;;;;;8.80;99.90;;;;;;5004260;28;19926;-78
2021/12/25 06:59:15;;;;;;;;;;;8.80;99.90;;;;;;4981190;28;20306;-83
2021/12/25 07:01:44;;;;;;;;;;;8.80;99.90;;;;;;5007238;28;19926;-83
2021/12/25 07:04:34;;;;;;;;;;;8.80;99.90;;;;;;5010135;28;19933;-82
2021/12/25 07:07:29;;;;;;;;;;;8.80;99.90;;;;;;4991068;28;19932;-81
2021/12/25 07:10:23;;;;;;;;;;;8.90;99.90;;;;;;4966960;28;19932;-79
2021/12/25 07:13:21;;;;;;;;;;;8.90;99.90;;;;;;4982885;28;19934;-81
2021/12/25 07:16:20;;;;;;;;;;;8.70;99.90;;;;;;4983564;28;19930;-80
2021/12/25 07:19:07;;;;;;;;;;;8.70;99.90;;;;;;5001050;28;19937;-80
2021/12/25 07:21:58;;;;;;;;;;;8.70;99.90;;;;;;4983931;28;19929;-82
2021/12/25 07:24:27;;;;;;;;;;;6.90;99.90;;;;;;5000236;28;19930;-79
2021/12/25 07:27:16;;;;;;;;;;;8.70;99.90;;;;;;4984538;28;19940;-79
2021/12/25 07:29:52;;;;;;;;;;;8.70;99.90;;;;;;5001172;28;19925;-78
2021/12/25 07:32:20;;;;;;;;;;;8.60;99.90;;;;;;5000582;28;20283;-80
2021/12/25 07:34:48;;;;;;;;;;;8.60;99.90;;;;;;5000863;28;19930;-82
2021/12/25 07:37:15;;;;;;;;;;;8.60;99.90;;;;;;4984301;28;19934;-78
2021/12/25 07:39:43;;;;;;;;;;;8.60;99.90;;;;;;4966710;28;19929;-78
2021/12/25 07:42:11;;;;;;;;;;;8.60;99.90;;;;;;4981262;28;20338;-80
2021/12/25 07:45:04;;;;;;;;;;;8.50;99.90;;;;;;4994662;28;19933;-79
2021/12/25 07:47:40;;;;;;;;;;;8.50;99.90;;;;;;4982099;28;19926;-79
2021/12/25 07:50:09;;;;;;;;;;;8.50;99.90;;;;;;5001021;28;19930;-79
2021/12/25 07:52:37;;;;;;;;;;;8.50;99.90;;;;;;4966504;28;19925;-78
2021/12/25 07:55:07;;;;;;;;;;;8.50;99.90;;;;;;4982742;28;19930;-82
2021/12/25 07:57:39;;;;;;;;;;;8.40;99.90;;;;;;4998485;28;19937;-85
2021/12/25 08:00:18;;;;;;;;;;;8.10;99.90;;;;;;4986357;28;19932;-82
2021/12/25 08:02:57;;;;;;;;;;;8.90;99.90;;;;;;4985522;28;20272;-84
2021/12/25 08:05:59;;;;;;;;;;;8.30;99.90;;;;;;4971530;28;19937;-86
2021/12/25 08:08:32;;;;;;;;;;;8.30;99.90;;;;;;4979335;28;19926;-83
2021/12/25 08:11:00;;;;;;;;;;;8.30;99.90;;;;;;4980523;28;19930;-79
2021/12/25 08:13:29;;;;;;;;;;;8.30;99.90;;;;;;5001846;28;19953;-82
2021/12/25 08:16:00;;;;;;;;;;;8.20;99.90;;;;;;4997421;28;19926;-81
2021/12/25 08:18:30;;;;;;;;;;;8.20;99.90;;;;;;4995091;28;19930;-79
2021/12/25 08:21:18;;;;;;;;;;;8.10;99.90;;;;;;5010107;28;19937;-81
2021/12/25 08:24:05;;;;;;;;;;;8.00;99.90;;;;;;5014426;28;19940;-82
2021/12/25 08:27:00;;;;;;;;;;;8.10;99.90;;;;;;4983604;28;19929;-81
2021/12/25 08:29:51;;;;;;;;;;;8.00;99.90;;;;;;5003579;28;20018;-80
2021/12/25 08:32:38;;;;;;;;;;;8.30;99.90;;;;;;4975263;28;19930;-78
2021/12/25 08:35:26;;;;;;;;;;;8.00;99.90;;;;;;4995895;28;19930;-79
2021/12/25 08:37:54;;;;;;;;;;;8.00;99.90;;;;;;4995374;28;19941;-84
2021/12/25 08:40:23;;;;;;;;;;;8.00;99.90;;;;;;4993484;28;19930;-83
2021/12/25 08:42:57;;;;;;;;;;;8.00;99.90;;;;;;4993793;28;20112;-79
2021/12/25 08:48:26;;;;;;;;;;;8.00;99.90;;;;;;5012557;28;19933;-79
2021/12/25 08:50:54;;;;;;;;;;;8.00;99.90;;;;;;4996725;28;19933;-81
2021/12/25 08:53:23;;;;;;;;;;;8.10;99.90;;;;;;4992737;28;19944;-80
2021/12/25 08:55:54;;;;;;;;;;;8.00;99.90;;;;;;4990395;28;19933;-78
2021/12/25 08:58:22;;;;;;;;;;;8.10;99.90;;;;;;5007673;28;19933;-80
2021/12/25 09:00:57;;;;;;;;;;;8.20;99.90;;;;;;4991081;28;19937;-81
2021/12/25 09:03:28;;;;;;;;;;;8.20;99.90;;;;;;4993712;28;19937;-79
2021/12/25 09:05:56;;;;;;;;;;;8.00;99.90;;;;;;4993597;28;19936;-83
2021/12/25 09:08:27;;;;;;;;;;;8.00;99.90;;;;;;4988768;28;19945;-82
2021/12/25 09:10:54;;;;;;;;;;;8.30;99.90;;;;;;5004011;28;19941;-80
2021/12/25 09:13:22;;;;;;;;;;;8.00;99.90;;;;;;4987480;28;19934;-79
2021/12/25 09:15:50;;;;;;;;;;;8.00;99.90;;;;;;4990151;28;19945;-81
2021/12/25 09:18:18;;;;;;;;;;;7.90;99.90;;;;;;4987314;28;19936;-79
2021/12/25 09:20:46;;;;;;;;;;;7.90;99.90;;;;;;4973670;28;19937;-79
2021/12/25 09:23:13;;;;;;;;;;;7.90;99.90;;;;;;4984413;28;20324;-78
2021/12/25 09:25:42;;;;;;;;;;;7.90;99.90;;;;;;4988160;28;19926;-79
2021/12/25 09:28:14;;;;;;;;;;;7.90;99.90;;;;;;4979227;28;19934;-80
2021/12/25 09:30:42;;;;;;;;;;;7.90;99.90;;;;;;4993110;28;19925;-79
2021/12/25 09:33:10;;;;;;;;;;;7.90;99.90;;;;;;4986384;28;19953;-81
2021/12/25 09:35:38;;;;;;;;;;;7.90;99.90;;;;;;5011423;28;20599;-78
2021/12/25 09:38:05;;;;;;;;;;;7.90;99.90;;;;;;5012298;28;19936;-80
2021/12/25 09:40:33;;;;;;;;;;;7.90;99.90;;;;;;5011449;28;19929;-82
2021/12/25 09:43:01;;;;;;;;;;;7.90;99.90;;;;;;5010887;28;19934;-79
2021/12/25 09:45:28;;;;;;;;;;;7.90;99.90;;;;;;5011495;28;19930;-79
2021/12/25 09:47:57;;;;;;;;;;;7.90;99.90;;;;;;5011074;28;19934;-80
2021/12/25 09:50:26;;;;;;;;;;;8.80;99.90;;;;;;5016270;28;19936;-80
2021/12/25 09:52:54;;;;;;;;;;;7.80;99.90;;;;;;5000020;28;19940;-81
2021/12/25 09:55:21;;;;;;;;;;;7.80;99.90;;;;;;5012729;28;19932;-85
2021/12/25 09:57:52;;;;;;;;;;;7.70;99.90;;;;;;5015400;28;19933;-80
2021/12/25 10:00:20;;;;;;;;;;;7.80;99.90;;;;;;4999495;28;19925;-81
2021/12/25 10:02:50;;;;;;;;;;;7.80;99.90;;;;;;5014976;28;20434;-80
2021/12/25 10:05:29;;;;;;;;;;;7.80;99.90;;;;;;5015129;28;19934;-79
2021/12/25 10:08:01;;;;;;;;;;;7.80;99.90;;;;;;4997671;28;19934;-79
2021/12/25 10:10:51;;;;;;;;;;;7.80;99.90;;;;;;4998926;28;19936;-78
2021/12/25 10:13:24;;;;;;;;;;;7.80;99.90;;;;;;5015400;28;19944;-78
2021/12/25 10:16:31;;;;;;;;;;;7.80;99.90;;;;;;5007297;28;19926;-78
2021/12/25 10:19:17;;;;;;;;;;;7.70;99.90;;;;;;5018444;28;19934;-78
2021/12/25 10:21:45;;;;;;;;;;;7.80;99.90;;;;;;5019652;28;19930;-80
2021/12/25 10:24:25;;;;;;;;;;;7.70;99.90;;;;;;5003343;28;19940;-81
2021/12/25 10:27:07;;;;;;;;;;;7.70;99.90;;;;;;5016917;28;19930;-80
2021/12/25 10:29:35;;;;;;;;;;;7.70;99.90;;;;;;5000957;28;19937;-81
2021/12/25 10:32:17;;;;;;;;;;;7.70;99.90;;;;;;4984594;28;19965;-82
2021/12/25 10:34:45;;;;;;;;;;;7.60;99.90;;;;;;4999684;28;19940;-84
2021/12/25 10:37:14;;;;;;;;;;;7.60;99.90;;;;;;5000814;28;19934;-79
2021/12/25 10:39:43;;;;;;;;;;;7.60;99.90;;;;;;5000656;28;19936;-81
2021/12/25 10:42:15;;;;;;;;;;;7.60;99.90;;;;;;4999291;28;19933;-78
2021/12/25 10:44:48;;;;;;;;;;;7.60;99.90;;;;;;5000753;28;19934;-80
2021/12/25 10:47:20;;;;;;;;;;;7.60;99.90;;;;;;4991925;28;19933;-78
2021/12/25 10:49:52;;;;;;;;;;;7.60;99.90;;;;;;4999990;28;19930;-78
2021/12/25 10:52:43;;;;;;;;;;;7.60;99.90;;;;;;5018260;28;19937;-79
2021/12/25 10:55:17;;;;;;;;;;;7.60;99.90;;;;;;4999365;28;19949;-78
2021/12/25 10:57:54;;;;;;;;;;;7.60;99.90;;;;;;4997624;28;19931;-78
2021/12/25 11:00:28;;;;;;;;;;;7.60;99.90;;;;;;4999426;28;19940;-80
2021/12/25 11:03:01;;;;;;;;;;;7.60;99.90;;;;;;5002524;28;19929;-82
2021/12/25 11:05:30;;;;;;;;;;;7.50;99.90;;;;;;5000873;28;19929;-78
2021/12/25 11:08:04;;;;;;;;;;;7.60;99.90;;;;;;4983995;28;19929;-79
2021/12/25 11:10:39;;;;;;;;;;;7.60;99.90;;;;;;4978413;28;19930;-80
2021/12/25 11:13:27;;;;;;;;;;;7.60;99.90;;;;;;4992655;28;19930;-81
2021/12/25 11:16:03;;;;;;;;;;;7.50;99.90;;;;;;5010043;28;19930;-79
2021/12/25 11:18:35;;;;;;;;;;;7.50;99.90;;;;;;4992857;28;20465;-80
2021/12/25 11:21:09;;;;;;;;;;;7.50;99.90;;;;;;4995571;28;19929;-79
2021/12/25 11:23:38;;;;;;;;;;;7.50;99.90;;;;;;4994904;28;20387;-79
2021/12/25 11:26:05;;;;;;;;;;;7.50;99.90;;;;;;4998521;28;19936;-79
2021/12/25 11:28:33;;;;;;;;;;;7.60;99.90;;;;;;4977523;28;19930;-80
2021/12/25 11:31:01;;;;;;;;;;;7.50;99.90;;;;;;4997743;28;19926;-82
2021/12/25 11:33:30;;;;;;;;;;;7.50;99.90;;;;;;5015771;28;19936;-81
2021/12/25 11:36:00;;;;;;;;;;;7.50;99.90;;;;;;5000683;28;20409;-81
2021/12/25 11:38:28;;;;;;;;;;;7.50;99.90;;;;;;5014271;28;19929;-79
2021/12/25 11:41:06;;;;;;;;;;;7.60;99.90;;;;;;5015480;28;19944;-83
2021/12/25 11:43:39;;;;;;;;;;;7.60;99.90;;;;;;5018289;28;19959;-82
2021/12/25 11:46:09;;;;;;;;;;;7.60;99.90;;;;;;5016485;28;19925;-84
2021/12/25 11:48:38;;;;;;;;;;;7.50;99.90;;;;;;4981415;28;19936;-83
2021/12/25 11:51:07;;;;;;;;;;;7.50;99.90;;;;;;4970055;28;19941;-79
2021/12/25 11:56:32;;;;;;;;;;;7.60;99.90;;;;;;4999226;28;19937;-82
2021/12/25 11:59:09;;;;;;;;;;;7.60;99.90;;;;;;5016683;28;19933;-80
2021/12/25 12:01:46;;;;;;;;;;;7.60;99.90;;;;;;5001457;28;19925;-79
2021/12/25 12:04:24;;;;;;;;;;;7.50;99.90;;;;;;5017289;28;19944;-80
2021/12/25 12:07:04;;;;;;;;;;;7.50;99.90;;;;;;5002489;28;19929;-80
2021/12/25 12:10:10;;;;;;;;;;;7.50;99.90;;;;;;4998116;28;19929;-80
2021/12/25 12:13:22;;;;;;;;;;;7.50;99.90;;;;;;4954822;28;19930;-80
2021/12/25 12:16:08;;;;;;;;;;;7.40;99.90;;;;;;4987644;28;19937;-83
2021/12/25 12:18:50;;;;;;;;;;;7.40;99.90;;;;;;4985031;28;20393;-81
2021/12/25 12:21:17;;;;;;;;;;;7.40;99.90;;;;;;4995503;28;19925;-82
2021/12/25 12:24:08;;;;;;;;;;;7.40;99.90;;;;;;5014425;28;19930;-79
2021/12/25 12:26:45;;;;;;;;;;;7.40;99.90;;;;;;4992068;28;19953;-81
2021/12/25 12:29:13;;;;;;;;;;;7.40;99.90;;;;;;4982635;28;19937;-82
2021/12/25 12:31:43;;;;;;;;;;;7.40;99.90;;;;;;4977150;28;19941;-81
2021/12/25 12:34:29;;;;;;;;;;;7.50;99.90;;;;;;4989143;28;19937;-83
2021/12/25 12:37:23;;;;;;;;;;;7.50;99.90;;;;;;4978658;28;19930;-79
2021/12/25 12:39:53;;;;;;;;;;;8.20;99.90;;;;;;4989087;28;20187;-83
2021/12/25 12:42:45;;;;;;;;;;;6.80;99.90;;;;;;4980057;28;19933;-82
2021/12/25 12:45:16;;;;;;;;;;;7.50;99.90;;;;;;4989154;28;19926;-83
2021/12/25 12:48:10;;;;;;;;;;;7.50;99.90;;;;;;4994689;28;19945;-83
2021/12/25 12:50:42;;;;;;;;;;;7.50;99.90;;;;;;4989194;28;19945;-82
2021/12/25 12:53:10;;;;;;;;;;;7.50;99.90;;;;;;4992487;28;19925;-81
2021/12/25 12:55:40;;;;;;;;;;;7.50;99.90;;;;;;4994994;28;20676;-83
2021/12/25 12:58:21;;;;;;;;;;;7.60;99.90;;;;;;4995193;28;19933;-80
2021/12/25 13:00:55;;;;;;;;;;;7.60;99.90;;;;;;4992247;28;19945;-79
2021/12/25 13:03:25;;;;;;;;;;;7.60;99.90;;;;;;4996630;28;19926;-81
2021/12/25 13:05:58;;;;;;;;;;;8.60;99.90;;;;;;4996110;28;19938;-80
2021/12/25 13:08:27;;;;;;;;;;;7.60;99.90;;;;;;4964267;28;19926;-82
2021/12/25 13:11:06;;;;;;;;;;;7.70;99.90;;;;;;4978062;28;19930;-81
2021/12/25 13:13:40;;;;;;;;;;;9.00;99.90;;;;;;4978177;28;19933;-85
2021/12/25 13:16:12;;;;;;;;;;;8.30;99.90;;;;;;4993401;28;19933;-82
2021/12/25 13:18:51;;;;;;;;;;;7.80;99.90;;;;;;4995251;28;19940;-84
2021/12/25 13:21:22;;;;;;;;;;;7.40;99.90;;;;;;4992756;28;20033;-85
2021/12/25 13:23:55;;;;;;;;;;;8.50;99.90;;;;;;4992223;28;19926;-84
2021/12/25 13:26:22;;;;;;;;;;;7.60;99.90;;;;;;4995650;28;19940;-82
2021/12/25 13:28:52;;;;;;;;;;;7.60;99.90;;;;;;4996817;28;19941;-81
2021/12/25 13:31:22;;;;;;;;;;;7.60;99.90;;;;;;5002974;28;19929;-83
2021/12/25 13:33:53;;;;;;;;;;;7.60;99.90;;;;;;5001662;28;19939;-84
2021/12/25 13:36:23;;;;;;;;;;;7.50;99.90;;;;;;5000076;28;19926;-85
2021/12/25 13:38:51;;;;;;;;;;;7.50;99.90;;;;;;5000571;28;19933;-82
2021/12/25 13:41:27;;;;;;;;;;;7.40;99.90;;;;;;4999009;28;19933;-80
2021/12/25 13:44:05;;;;;;;;;;;7.50;99.90;;;;;;4999880;28;19932;-81
2021/12/25 13:46:44;;;;;;;;;;;7.50;99.90;;;;;;4998750;28;19940;-81
2021/12/25 13:49:32;;;;;;;;;;;7.50;99.90;;;;;;5020793;28;19931;-81
2021/12/25 13:52:03;;;;;;;;;;;7.50;99.90;;;;;;4990825;28;20004;-80
2021/12/25 13:54:31;;;;;;;;;;;7.40;99.90;;;;;;4988622;28;19940;-81
2021/12/25 13:56:58;;;;;;;;;;;8.80;99.90;;;;;;5019269;28;19940;-81
2021/12/25 13:59:26;;;;;;;;;;;7.40;99.90;;;;;;5002249;28;19937;-81
2021/12/25 14:02:07;;;;;;;;;;;7.40;99.90;;;;;;5005757;28;19933;-80
2021/12/25 14:04:38;;;;;;;;;;;9.20;99.90;;;;;;4990013;28;19932;-84
2021/12/25 14:07:08;;;;;;;;;;;7.30;99.90;;;;;;4997529;28;19930;-80
2021/12/25 14:10:03;;;;;;;;;;;7.40;99.90;;;;;;5016853;28;19930;-81
2021/12/25 14:12:32;;;;;;;;;;;7.30;99.90;;;;;;4991966;28;19929;-81
2021/12/25 14:15:01;;;;;;;;;;;7.30;99.90;;;;;;4998395;28;19936;-81
2021/12/25 14:17:28;;;;;;;;;;;7.30;99.90;;;;;;5015969;28;20155;-82
2021/12/25 14:20:09;;;;;;;;;;;7.30;99.90;;;;;;5003847;28;19925;-82
2021/12/25 14:22:37;;;;;;;;;;;7.30;99.90;;;;;;4999687;28;19955;-81
2021/12/25 14:25:06;;;;;;;;;;;7.30;99.90;;;;;;5003882;28;19939;-81
2021/12/25 14:27:35;;;;;;;;;;;7.40;99.90;;;;;;5015808;28;20299;-81
2021/12/25 14:30:05;;;;;;;;;;;7.30;99.90;;;;;;5000774;28;19933;-80
2021/12/25 14:32:33;;;;;;;;;;;7.30;99.90;;;;;;5019794;28;19940;-80
2021/12/25 14:35:12;;;;;;;;;;;7.30;99.90;;;;;;4986798;28;19936;-82
2021/12/25 14:37:40;;;;;;;;;;;7.50;99.90;;;;;;4998843;28;19930;-82
2021/12/25 14:40:17;;;;;;;;;;;7.30;99.90;;;;;;5017065;28;19925;-79
2021/12/25 14:42:48;;;;;;;;;;;7.30;99.90;;;;;;5016776;28;19929;-79
2021/12/25 14:45:18;;;;;;;;;;;7.20;99.90;;;;;;5002105;28;20478;-80
2021/12/25 14:47:51;;;;;;;;;;;7.20;99.90;;;;;;5017096;28;19929;-79
2021/12/25 14:50:21;;;;;;;;;;;7.20;99.90;;;;;;4985822;28;19937;-80
2021/12/25 14:53:01;;;;;;;;;;;7.20;99.90;;;;;;4997758;28;19934;-79
2021/12/25 14:55:32;;;;;;;;;;;7.20;99.90;;;;;;4988454;28;20194;-81
2021/12/25 14:58:04;;;;;;;;;;;7.20;99.90;;;;;;5001136;28;19925;-80
2021/12/25 15:00:34;;;;;;;;;;;7.20;99.90;;;;;;4976116;28;20392;-82
2021/12/25 15:03:21;;;;;;;;;;;7.20;99.90;;;;;;4998148;28;19936;-83
2021/12/25 15:05:53;;;;;;;;;;;7.20;99.90;;;;;;4979915;28;19949;-81
2021/12/25 15:08:21;;;;;;;;;;;7.10;99.90;;;;;;4995879;28;19940;-81
2021/12/25 15:10:49;;;;;;;;;;;7.10;99.90;;;;;;4987702;28;20256;-81
2021/12/25 15:13:18;;;;;;;;;;;7.10;99.90;;;;;;4996926;28;19933;-79
2021/12/25 15:15:48;;;;;;;;;;;6.50;99.90;;;;;;5002271;28;19925;-83
2021/12/25 15:18:19;;;;;;;;;;;7.00;99.90;;;;;;5015840;28;19932;-82
2021/12/25 15:20:47;;;;;;;;;;;7.00;99.90;;;;;;4968444;28;19998;-83
2021/12/25 15:23:16;;;;;;;;;;;7.00;99.90;;;;;;5013413;28;20439;-79
2021/12/25 15:26:02;;;;;;;;;;;7.00;99.90;;;;;;5016730;28;19930;-81
2021/12/25 15:28:30;;;;;;;;;;;7.00;99.90;;;;;;5018643;28;19929;-80
2021/12/25 15:31:12;;;;;;;;;;;7.00;99.90;;;;;;4989471;28;19925;-80
2021/12/25 15:33:48;;;;;;;;;;;7.00;99.90;;;;;;5015192;28;19941;-82
2021/12/25 15:36:16;;;;;;;;;;;7.00;99.90;;;;;;5000532;28;19925;-81
2021/12/25 15:38:45;;;;;;;;;;;6.90;99.90;;;;;;5020219;28;19926;-80
2021/12/25 15:41:14;;;;;;;;;;;7.20;99.90;;;;;;5000949;28;19926;-79
2021/12/25 15:43:42;;;;;;;;;;;7.00;99.90;;;;;;4999487;28;19930;-81
2021/12/25 15:46:10;;;;;;;;;;;6.90;99.90;;;;;;5000206;28;19930;-80
2021/12/25 15:48:38;;;;;;;;;;;7.00;99.90;;;;;;5001775;28;20096;-81
2021/12/25 15:51:08;;;;;;;;;;;6.90;99.90;;;;;;5018968;28;19944;-81
2021/12/25 15:53:36;;;;;;;;;;;6.90;99.90;;;;;;4972016;28;20974;-81
2021/12/25 15:58:58;;;;;;;;;;;6.90;99.90;;;;;;5006244;28;19930;-79
2021/12/25 16:01:27;;;;;;;;;;;6.90;99.90;;;;;;5002888;28;19929;-80
2021/12/25 16:03:55;;;;;;;;;;;6.90;99.90;;;;;;4983086;28;19936;-82
2021/12/25 16:06:22;;;;;;;;;;;6.90;99.90;;;;;;4980090;28;19926;-81
2021/12/25 16:08:50;;;;;;;;;;;6.90;99.90;;;;;;4981666;28;20345;-81
2021/12/25 16:11:17;;;;;;;;;;;6.90;99.90;;;;;;5002646;28;19925;-82
2021/12/25 16:13:45;;;;;;;;;;;6.90;99.90;;;;;;4999248;28;19925;-82
2021/12/25 16:16:13;;;;;;;;;;;6.90;99.90;;;;;;5018634;28;19934;-79
2021/12/25 16:18:41;;;;;;;;;;;7.00;99.90;;;;;;5001311;28;19925;-81
2021/12/25 16:21:09;;;;;;;;;;;6.80;99.90;;;;;;5016892;28;19925;-83
2021/12/25 16:23:36;;;;;;;;;;;6.80;99.90;;;;;;5014187;28;19941;-83
2021/12/25 16:26:04;;;;;;;;;;;6.80;99.90;;;;;;5001378;28;20200;-80
2021/12/25 16:28:32;;;;;;;;;;;6.80;99.90;;;;;;4995981;28;19926;-80